Time;durP1;ratioP1;P1;durP2;ratioP2;P2;SDS_P1;SDS_P2;PMS_P1;PMS_P2;Temp;Humidity;BMP_temperature;BMP_pressure;BME280_temperature;BME280_humidity;BME280_pressure;Samples;Min_cycle;Max_cycle;Signal;HPM_P1;HPM_P2
2022/01/23 00:00:19;;;;;;;8.93;6.33;;;;;;;;;;5051450;28;20098;-56
2022/01/23 00:02:46;;;;;;;11.20;5.77;;;;;;;;;;5051745;28;20036;-56
2022/01/23 00:05:12;;;;;;;10.27;6.90;;;;;;;;;;5052038;28;20031;-56
2022/01/23 00:07:40;;;;;;;8.37;6.13;;;;;;;;;;5052159;28;20033;-56
2022/01/23 00:10:07;;;;;;;9.90;5.57;;;;;;;;;;5051644;28;20366;-55
2022/01/23 00:12:39;;;;;;;9.40;6.13;;;;;;;;;;5051960;28;20402;-56
2022/01/23 00:17:50;;;;;;;8.47;5.63;;;;;;;;;;5051288;28;20498;-56
2022/01/23 00:20:16;;;;;;;9.07;6.80;;;;;;;;;;5051926;28;20029;-53
2022/01/23 00:22:49;;;;;;;8.33;6.03;;;;;;;;;;5051756;28;20029;-56
2022/01/23 00:30:46;;;;;;;8.27;5.60;;;;;;;;;;5052149;28;20078;-57
2022/01/23 00:33:13;;;;;;;6.47;5.63;;;;;;;;;;5051468;28;20029;-56
2022/01/23 00:35:39;;;;;;;9.17;7.30;;;;;;;;;;5051827;28;20033;-57
2022/01/23 00:38:06;;;;;;;11.27;7.07;;;;;;;;;;5051193;28;20108;-56
2022/01/23 00:40:33;;;;;;;10.13;6.87;;;;;;;;;;5051678;28;20384;-54
2022/01/23 00:43:00;;;;;;;8.37;6.10;;;;;;;;;;5051686;28;20025;-55
2022/01/23 00:48:08;;;;;;;9.73;7.80;;;;;;;;;;5051114;28;20090;-56
2022/01/23 00:50:38;;;;;;;9.23;6.83;;;;;;;;;;5051435;28;20033;-56
2022/01/23 00:53:08;;;;;;;8.63;7.13;;;;;;;;;;5045276;28;20437;-55
2022/01/23 00:55:34;;;;;;;9.00;6.18;;;;;;;;;;5047752;28;20029;-56
2022/01/23 00:58:00;;;;;;;8.20;5.60;;;;;;;;;;5050989;28;20017;-56
2022/01/23 01:00:26;;;;;;;9.97;6.43;;;;;;;;;;5051091;28;20040;-54
2022/01/23 01:02:52;;;;;;;10.40;6.63;;;;;;;;;;5051256;28;20119;-56
2022/01/23 01:05:18;;;;;;;10.53;6.87;;;;;;;;;;5051531;28;20159;-56
2022/01/23 01:07:44;;;;;;;9.03;7.20;;;;;;;;;;5051536;28;20025;-56
2022/01/23 01:10:19;;;;;;;10.27;6.67;;;;;;;;;;5054545;28;20033;-56
2022/01/23 01:12:47;;;;;;;11.27;6.57;;;;;;;;;;5054903;28;20417;-56
2022/01/23 01:31:26;;;;;;;7.77;5.87;;;;;;;;;;5054995;28;20547;-56
2022/01/23 01:33:58;;;;;;;8.53;6.63;;;;;;;;;;5054405;28;20491;-56
2022/01/23 01:36:35;;;;;;;11.60;8.13;;;;;;;;;;5054331;28;20029;-57
2022/01/23 01:39:01;;;;;;;9.53;7.27;;;;;;;;;;5054056;28;20021;-56
2022/01/23 01:41:27;;;;;;;7.50;6.63;;;;;;;;;;5054371;28;20032;-56
2022/01/23 01:43:54;;;;;;;11.83;7.40;;;;;;;;;;5054295;28;20024;-56
2022/01/23 01:46:20;;;;;;;7.97;6.17;;;;;;;;;;5054296;28;20052;-57
2022/01/23 01:48:46;;;;;;;10.80;6.47;;;;;;;;;;5053539;28;20053;-56
2022/01/23 01:51:16;;;;;;;9.60;7.13;;;;;;;;;;5054238;28;20055;-56
2022/01/23 01:53:51;;;;;;;10.70;8.13;;;;;;;;;;5043391;28;20040;-57
2022/01/23 01:56:17;;;;;;;11.40;6.73;;;;;;;;;;5054072;28;20460;-53
2022/01/23 02:09:27;;;;;;;8.80;7.13;;;;;;;;;;5053519;28;20557;-56
2022/01/23 02:17:19;;;;;;;7.20;5.53;;;;;;;;;;5053947;28;20455;-56
2022/01/23 02:22:57;;;;;;;7.40;5.97;;;;;;;;;;5053757;28;20481;-56
2022/01/23 02:55:24;;;;;;;8.10;5.10;;;;;;;;;;5046379;28;20606;-56
2022/01/23 02:57:54;;;;;;;10.67;7.40;;;;;;;;;;5052413;28;20025;-51
2022/01/23 03:00:23;;;;;;;9.97;8.43;;;;;;;;;;5052538;28;20209;-55
2022/01/23 03:02:52;;;;;;;10.07;8.43;;;;;;;;;;5052708;28;20048;-54
2022/01/23 03:10:35;;;;;;;12.57;8.10;;;;;;;;;;5052886;28;20029;-56
2022/01/23 03:29:25;;;;;;;12.47;8.50;;;;;;;;;;5055329;28;20430;-54
2022/01/23 03:34:18;;;;;;;11.97;8.37;;;;;;;;;;5052324;28;20040;-57
2022/01/23 03:36:44;;;;;;;19.90;9.98;;;;;;;;;;5052290;28;20037;-57
2022/01/23 03:39:10;;;;;;;13.03;9.10;;;;;;;;;;5051506;28;20029;-56
2022/01/23 03:41:40;;;;;;;12.57;7.97;;;;;;;;;;5052248;28;20423;-57
2022/01/23 03:44:08;;;;;;;9.18;6.82;;;;;;;;;;5051999;28;20613;-56
2022/01/23 03:51:45;;;;;;;13.10;9.37;;;;;;;;;;5052312;28;20052;-57
2022/01/23 03:54:12;;;;;;;12.67;9.07;;;;;;;;;;5047452;28;20051;-57
2022/01/23 03:56:38;;;;;;;12.80;8.93;;;;;;;;;;5032321;28;20108;-57
2022/01/23 03:59:04;;;;;;;12.68;7.85;;;;;;;;;;5031418;28;20471;-57
2022/01/23 04:01:30;;;;;;;12.07;8.40;;;;;;;;;;5032138;28;20048;-56
2022/01/23 04:04:01;;;;;;;11.35;8.25;;;;;;;;;;5031955;28;20495;-53
2022/01/23 04:06:27;;;;;;;12.43;8.73;;;;;;;;;;5032018;28;20037;-56
2022/01/23 04:08:53;;;;;;;13.10;9.40;;;;;;;;;;5031787;28;20467;-55
2022/01/23 04:11:19;;;;;;;12.50;8.50;;;;;;;;;;5032092;28;20108;-55
2022/01/23 04:13:55;;;;;;;14.98;9.38;;;;;;;;;;5031803;28;20464;-56
2022/01/23 04:19:33;;;;;;;13.23;9.60;;;;;;;;;;5029067;28;20049;-56
2022/01/23 04:45:11;;;;;;;12.80;8.27;;;;;;;;;;5031559;28;20041;-54
2022/01/23 05:00:13;;;;;;;18.60;10.60;;;;;;;;;;5055273;28;20087;-55
2022/01/23 05:05:30;;;;;;;13.50;10.43;;;;;;;;;;5055401;28;20083;-56
2022/01/23 05:07:57;;;;;;;13.83;11.53;;;;;;;;;;5054810;28;20064;-56
2022/01/23 05:10:23;;;;;;;17.90;12.17;;;;;;;;;;5054984;28;20108;-57
2022/01/23 05:12:49;;;;;;;17.27;12.07;;;;;;;;;;5053598;28;20048;-56
2022/01/23 05:15:15;;;;;;;19.83;11.90;;;;;;;;;;5053539;28;20430;-56
2022/01/23 05:17:41;;;;;;;13.10;10.60;;;;;;;;;;5054805;28;20052;-57
2022/01/23 05:20:07;;;;;;;16.07;10.77;;;;;;;;;;5054579;28;20112;-56
2022/01/23 05:22:45;;;;;;;17.00;9.97;;;;;;;;;;5054425;28;20033;-56
2022/01/23 05:27:40;;;;;;;16.65;10.07;;;;;;;;;;5054600;28;20060;-57
2022/01/23 05:30:06;;;;;;;12.87;9.43;;;;;;;;;;5054379;28;20107;-56
2022/01/23 05:32:35;;;;;;;14.23;10.57;;;;;;;;;;5053815;28;20025;-57
2022/01/23 05:35:02;;;;;;;19.33;11.32;;;;;;;;;;5051629;28;20040;-59
2022/01/23 05:37:28;;;;;;;15.97;11.90;;;;;;;;;;5054506;28;20032;-56
2022/01/23 05:39:54;;;;;;;13.03;11.20;;;;;;;;;;5053804;28;20367;-55
2022/01/23 05:42:20;;;;;;;17.13;11.07;;;;;;;;;;5054140;28;20064;-56
2022/01/23 05:44:46;;;;;;;16.80;11.03;;;;;;;;;;5054502;28;20398;-57
2022/01/23 05:47:13;;;;;;;17.13;12.13;;;;;;;;;;5054034;28;20033;-56
2022/01/23 05:49:39;;;;;;;13.57;9.90;;;;;;;;;;5053900;28;20037;-56
2022/01/23 05:52:06;;;;;;;20.07;11.80;;;;;;;;;;5053971;28;20055;-56
2022/01/23 05:54:32;;;;;;;18.37;11.00;;;;;;;;;;5045662;28;20017;-56
2022/01/23 05:56:58;;;;;;;15.03;10.37;;;;;;;;;;5034313;28;20061;-56
2022/01/23 05:59:24;;;;;;;16.07;11.30;;;;;;;;;;5033821;28;20064;-56
2022/01/23 06:01:56;;;;;;;17.27;10.83;;;;;;;;;;5046762;28;20087;-56
2022/01/23 06:04:24;;;;;;;15.50;10.73;;;;;;;;;;5034036;28;20041;-57
2022/01/23 06:06:50;;;;;;;16.27;10.33;;;;;;;;;;5034060;28;20030;-55
2022/01/23 06:09:16;;;;;;;14.43;10.43;;;;;;;;;;5033139;28;20091;-56
2022/01/23 06:11:42;;;;;;;16.03;11.77;;;;;;;;;;5045817;28;20433;-55
2022/01/23 06:14:09;;;;;;;14.53;9.93;;;;;;;;;;5053339;28;20028;-57
2022/01/23 06:16:38;;;;;;;18.67;9.93;;;;;;;;;;5053898;28;20447;-57
2022/01/23 06:19:04;;;;;;;14.60;10.37;;;;;;;;;;5052935;28;20047;-58
2022/01/23 06:21:30;;;;;;;13.87;11.13;;;;;;;;;;5053840;28;20091;-56
2022/01/23 06:24:13;;;;;;;19.50;13.20;;;;;;;;;;5053168;28;20033;-57
2022/01/23 06:26:44;;;;;;;13.13;11.77;;;;;;;;;;5053871;28;20040;-57
2022/01/23 06:29:11;;;;;;;14.57;10.97;;;;;;;;;;5052975;28;20111;-56
2022/01/23 06:31:38;;;;;;;16.03;11.90;;;;;;;;;;5053275;28;20083;-58
2022/01/23 06:34:05;;;;;;;13.73;11.33;;;;;;;;;;5053073;28;20339;-57
2022/01/23 06:36:31;;;;;;;17.23;12.47;;;;;;;;;;5053705;28;20037;-57
2022/01/23 06:38:57;;;;;;;15.43;10.97;;;;;;;;;;5052616;28;20114;-56
2022/01/23 06:41:23;;;;;;;16.50;12.60;;;;;;;;;;5053250;28;20459;-57
2022/01/23 06:43:49;;;;;;;17.67;11.00;;;;;;;;;;5052945;28;20079;-55
2022/01/23 06:46:15;;;;;;;13.20;10.43;;;;;;;;;;5053279;28;20073;-57
2022/01/23 06:48:41;;;;;;;16.60;12.20;;;;;;;;;;5052051;28;20094;-57
2022/01/23 06:51:07;;;;;;;19.47;13.63;;;;;;;;;;5053060;28;20025;-58
2022/01/23 06:53:33;;;;;;;17.20;12.55;;;;;;;;;;5053024;28;20029;-56
2022/01/23 06:55:59;;;;;;;15.80;10.68;;;;;;;;;;5033327;28;20032;-58
2022/01/23 06:58:25;;;;;;;19.70;12.18;;;;;;;;;;5032441;28;20022;-58
2022/01/23 07:00:51;;;;;;;14.27;11.13;;;;;;;;;;5036302;28;20028;-58
2022/01/23 07:03:17;;;;;;;14.33;9.60;;;;;;;;;;5052266;28;20029;-58
2022/01/23 07:05:43;;;;;;;14.48;10.40;;;;;;;;;;5052150;28;20021;-56
2022/01/23 07:08:09;;;;;;;15.68;12.00;;;;;;;;;;5052206;28;20021;-57
2022/01/23 07:10:35;;;;;;;18.90;12.23;;;;;;;;;;5052535;28;20049;-58
2022/01/23 07:13:01;;;;;;;16.37;12.07;;;;;;;;;;5052625;28;20052;-58
2022/01/23 07:15:27;;;;;;;18.63;11.68;;;;;;;;;;5052515;28;20029;-53
2022/01/23 07:17:53;;;;;;;13.10;10.47;;;;;;;;;;5051721;28;20025;-58
2022/01/23 07:20:19;;;;;;;20.23;10.90;;;;;;;;;;5052610;28;20443;-56
2022/01/23 07:22:45;;;;;;;15.27;10.17;;;;;;;;;;5052069;28;20208;-57
2022/01/23 07:25:11;;;;;;;15.10;10.93;;;;;;;;;;5052307;28;20283;-57
2022/01/23 07:27:43;;;;;;;14.93;11.43;;;;;;;;;;5052527;28;20067;-58
2022/01/23 07:30:22;;;;;;;12.23;11.07;;;;;;;;;;5051967;28;20430;-57
2022/01/23 07:32:48;;;;;;;15.50;10.00;;;;;;;;;;5052009;28;20044;-58
2022/01/23 07:35:14;;;;;;;15.57;12.00;;;;;;;;;;5052623;28;20379;-58
2022/01/23 07:37:40;;;;;;;16.33;11.03;;;;;;;;;;5052411;28;20094;-57
2022/01/23 07:40:06;;;;;;;15.48;11.13;;;;;;;;;;5051715;28;20037;-58
2022/01/23 07:42:32;;;;;;;14.53;11.43;;;;;;;;;;5052365;28;20041;-57
2022/01/23 07:44:58;;;;;;;16.80;11.40;;;;;;;;;;5051410;28;20175;-59
2022/01/23 07:47:24;;;;;;;18.70;11.20;;;;;;;;;;5052117;28;20121;-58
2022/01/23 07:49:50;;;;;;;15.27;10.00;;;;;;;;;;5051430;28;20032;-57
2022/01/23 07:52:17;;;;;;;15.67;11.43;;;;;;;;;;5051596;28;20033;-58
2022/01/23 07:54:43;;;;;;;17.37;11.27;;;;;;;;;;5051987;28;20032;-57
2022/01/23 07:57:09;;;;;;;13.70;10.17;;;;;;;;;;5051961;28;20462;-55
2022/01/23 07:59:35;;;;;;;19.73;11.38;;;;;;;;;;5051303;28;20048;-57
2022/01/23 08:02:01;;;;;;;15.33;11.30;;;;;;;;;;5051774;28;20029;-56
2022/01/23 08:04:28;;;;;;;15.50;11.43;;;;;;;;;;5051769;28;20443;-56
2022/01/23 08:07:08;;;;;;;17.33;12.60;;;;;;;;;;5051963;28;20441;-57
2022/01/23 08:09:34;;;;;;;19.02;12.57;;;;;;;;;;5051290;28;20112;-58
2022/01/23 08:12:00;;;;;;;17.00;13.30;;;;;;;;;;5051299;28;20032;-58
2022/01/23 08:14:26;;;;;;;17.00;12.68;;;;;;;;;;5051062;28;20544;-58
2022/01/23 08:16:52;;;;;;;18.23;13.03;;;;;;;;;;5052651;28;20266;-55
2022/01/23 08:19:18;;;;;;;18.50;13.98;;;;;;;;;;5055305;28;20476;-58
2022/01/23 08:21:44;;;;;;;17.58;13.23;;;;;;;;;;5055455;28;20074;-55
2022/01/23 08:24:11;;;;;;;18.73;12.50;;;;;;;;;;5053791;28;20052;-57
2022/01/23 08:26:37;;;;;;;22.37;13.43;;;;;;;;;;5055121;28;20029;-58
2022/01/23 08:29:04;;;;;;;21.83;12.13;;;;;;;;;;5054482;28;20036;-58
2022/01/23 08:31:30;;;;;;;18.40;12.20;;;;;;;;;;5055492;28;20036;-56
2022/01/23 08:33:56;;;;;;;19.53;13.33;;;;;;;;;;5053776;28;20061;-58
2022/01/23 08:36:22;;;;;;;19.63;11.60;;;;;;;;;;5055132;28;20052;-57
2022/01/23 08:38:48;;;;;;;17.40;13.60;;;;;;;;;;5053858;28;20032;-57
2022/01/23 08:43:49;;;;;;;18.38;13.23;;;;;;;;;;5053630;28;20033;-58
2022/01/23 08:46:16;;;;;;;21.97;12.93;;;;;;;;;;5054886;28;20037;-57
2022/01/23 08:48:42;;;;;;;21.85;13.77;;;;;;;;;;5054248;28;20029;-57
2022/01/23 08:51:08;;;;;;;24.53;13.03;;;;;;;;;;5054893;28;20336;-58
2022/01/23 08:53:34;;;;;;;17.63;14.23;;;;;;;;;;5054779;28;20044;-57
2022/01/23 08:56:00;;;;;;;20.98;15.27;;;;;;;;;;5054332;28;20029;-57
2022/01/23 08:58:26;;;;;;;21.73;13.93;;;;;;;;;;5055024;28;20359;-57
2022/01/23 09:00:52;;;;;;;18.85;15.45;;;;;;;;;;5054673;28;20033;-57
2022/01/23 09:03:18;;;;;;;20.48;14.30;;;;;;;;;;5054709;28;20035;-58
2022/01/23 09:05:44;;;;;;;25.40;15.77;;;;;;;;;;5054728;28;20029;-58
2022/01/23 09:08:10;;;;;;;20.23;15.00;;;;;;;;;;5053735;28;20025;-57
2022/01/23 09:10:42;;;;;;;22.70;14.52;;;;;;;;;;5054835;28;20029;-57
2022/01/23 09:15:35;;;;;;;21.20;16.48;;;;;;;;;;5054576;28;20039;-58
2022/01/23 09:18:01;;;;;;;25.13;15.75;;;;;;;;;;5054226;28;20029;-56
2022/01/23 09:20:28;;;;;;;20.73;14.90;;;;;;;;;;5054538;28;20529;-57
2022/01/23 09:22:54;;;;;;;22.73;15.32;;;;;;;;;;5054740;28;20112;-58
2022/01/23 09:25:20;;;;;;;18.77;15.52;;;;;;;;;;5053078;28;20025;-57
2022/01/23 09:27:46;;;;;;;25.65;16.48;;;;;;;;;;5051568;28;20025;-58
2022/01/23 09:30:20;;;;;;;29.67;16.50;;;;;;;;;;5053470;28;20029;-59
2022/01/23 09:32:47;;;;;;;24.63;16.48;;;;;;;;;;5054402;28;20041;-58
2022/01/23 09:35:14;;;;;;;19.45;14.93;;;;;;;;;;5053592;28;20033;-57
2022/01/23 09:37:41;;;;;;;31.52;17.77;;;;;;;;;;5053078;28;20041;-58
2022/01/23 09:40:08;;;;;;;22.27;14.90;;;;;;;;;;5053356;28;20528;-58
2022/01/23 09:42:46;;;;;;;22.20;15.40;;;;;;;;;;5053910;28;20033;-57
2022/01/23 09:45:13;;;;;;;25.08;17.70;;;;;;;;;;5053914;28;20033;-57
2022/01/23 09:47:40;;;;;;;31.17;15.68;;;;;;;;;;5053116;28;20021;-57
2022/01/23 09:50:07;;;;;;;24.48;16.92;;;;;;;;;;5052700;28;20049;-56
2022/01/23 09:52:35;;;;;;;24.77;16.17;;;;;;;;;;5053323;28;20609;-53
2022/01/23 09:55:07;;;;;;;18.40;15.02;;;;;;;;;;5053536;28;20132;-54
2022/01/23 09:57:35;;;;;;;19.42;15.43;;;;;;;;;;5051970;28;20024;-58
2022/01/23 10:00:02;;;;;;;21.52;14.40;;;;;;;;;;5052925;28;20098;-58
2022/01/23 10:02:28;;;;;;;26.00;16.25;;;;;;;;;;5053654;28;20029;-58
2022/01/23 10:04:55;;;;;;;20.83;16.02;;;;;;;;;;5053923;28;20040;-57
2022/01/23 10:07:21;;;;;;;21.10;16.23;;;;;;;;;;5053889;28;20111;-57
2022/01/23 10:09:53;;;;;;;23.13;14.75;;;;;;;;;;5053162;28;20033;-57
2022/01/23 10:12:20;;;;;;;20.75;15.73;;;;;;;;;;5053968;28;20056;-57
2022/01/23 10:14:46;;;;;;;20.85;15.45;;;;;;;;;;5053483;28;20031;-58
2022/01/23 10:17:12;;;;;;;17.42;11.23;;;;;;;;;;5053856;28;20128;-58
2022/01/23 10:19:39;;;;;;;15.82;11.63;;;;;;;;;;5053229;28;20033;-57
2022/01/23 10:22:06;;;;;;;16.42;11.02;;;;;;;;;;5053824;28;20418;-57
2022/01/23 10:24:32;;;;;;;15.85;11.05;;;;;;;;;;5053250;28;20469;-57
2022/01/23 10:27:00;;;;;;;15.63;11.50;;;;;;;;;;5053337;28;20037;-57
2022/01/23 10:29:29;;;;;;;21.85;12.13;;;;;;;;;;5052660;28;20037;-57
2022/01/23 10:32:10;;;;;;;12.55;10.30;;;;;;;;;;5053195;28;20033;-57
2022/01/23 10:34:41;;;;;;;12.23;9.98;;;;;;;;;;5053593;28;20021;-57
2022/01/23 10:37:07;;;;;;;16.02;10.10;;;;;;;;;;5053388;28;20029;-57
2022/01/23 10:39:40;;;;;;;16.98;11.70;;;;;;;;;;5051927;28;20459;-57
2022/01/23 10:47:58;;;;;;;16.63;12.13;;;;;;;;;;5052339;28;20127;-58
2022/01/23 10:50:24;;;;;;;19.85;14.75;;;;;;;;;;5052956;28;20041;-57
2022/01/23 10:52:51;;;;;;;17.90;13.55;;;;;;;;;;5053111;28;20057;-58
2022/01/23 10:55:20;;;;;;;19.35;13.68;;;;;;;;;;5052930;28;20029;-57
2022/01/23 10:57:47;;;;;;;17.70;13.60;;;;;;;;;;5052245;28;20031;-59
2022/01/23 11:00:32;;;;;;;17.65;13.02;;;;;;;;;;5052335;28;20398;-56
2022/01/23 11:03:02;;;;;;;16.05;14.35;;;;;;;;;;5052708;28;20048;-57
2022/01/23 11:05:32;;;;;;;23.50;13.43;;;;;;;;;;5052895;28;20025;-57
2022/01/23 11:07:58;;;;;;;22.60;15.40;;;;;;;;;;5052074;28;20147;-58
2022/01/23 11:10:24;;;;;;;16.75;13.55;;;;;;;;;;5052617;28;20060;-56
2022/01/23 11:18:08;;;;;;;18.52;12.55;;;;;;;;;;5052152;28;20113;-58
2022/01/23 11:21:04;;;;;;;14.35;10.57;;;;;;;;;;5052942;28;20029;-56
2022/01/23 11:23:32;;;;;;;15.00;9.10;;;;;;;;;;5051609;28;20045;-58
2022/01/23 11:25:57;;;;;;;14.38;9.40;;;;;;;;;;5052176;28;20033;-56
2022/01/23 11:28:39;;;;;;;16.60;10.55;;;;;;;;;;5051869;28;20036;-57
2022/01/23 11:31:08;;;;;;;11.55;8.68;;;;;;;;;;5052296;28;20037;-58
2022/01/23 11:33:34;;;;;;;14.10;10.18;;;;;;;;;;5052356;28;20047;-58
2022/01/23 11:36:01;;;;;;;13.73;9.60;;;;;;;;;;5052359;28;20036;-56
2022/01/23 11:38:28;;;;;;;18.35;10.95;;;;;;;;;;5051623;28;20144;-58
2022/01/23 11:54:49;;;;;;;13.02;9.57;;;;;;;;;;5041810;28;20036;-58
2022/01/23 11:57:37;;;;;;;14.15;8.68;;;;;;;;;;5051577;28;20114;-58
2022/01/23 12:00:32;;;;;;;14.48;8.57;;;;;;;;;;5051637;28;20367;-57
2022/01/23 12:03:17;;;;;;;13.57;9.90;;;;;;;;;;5050867;28;20114;-58
2022/01/23 12:05:45;;;;;;;12.60;10.70;;;;;;;;;;5050530;28;20017;-56
2022/01/23 12:08:14;;;;;;;20.67;11.60;;;;;;;;;;5051341;28;20297;-55
2022/01/23 12:10:53;;;;;;;14.98;10.65;;;;;;;;;;5051741;28;20471;-57
2022/01/23 12:16:27;;;;;;;13.38;9.73;;;;;;;;;;5052119;28;20410;-57
2022/01/23 12:19:13;;;;;;;14.35;10.55;;;;;;;;;;5051186;28;20025;-58
2022/01/23 12:21:39;;;;;;;13.38;11.55;;;;;;;;;;5051287;28;20024;-58
2022/01/23 12:24:06;;;;;;;15.98;10.98;;;;;;;;;;5051448;28;20483;-58
2022/01/23 12:26:32;;;;;;;14.82;11.02;;;;;;;;;;5051107;28;20048;-58
2022/01/23 12:29:14;;;;;;;12.77;9.68;;;;;;;;;;5048640;28;20041;-57
2022/01/23 12:31:40;;;;;;;15.32;11.98;;;;;;;;;;5047901;28;20163;-57
2022/01/23 12:34:06;;;;;;;18.58;11.77;;;;;;;;;;5048930;28;20078;-58
2022/01/23 12:36:34;;;;;;;15.93;10.35;;;;;;;;;;5041395;28;20029;-58
2022/01/23 12:39:09;;;;;;;14.23;10.77;;;;;;;;;;5029930;28;20033;-58
2022/01/23 12:41:39;;;;;;;16.08;10.10;;;;;;;;;;5046768;28;20136;-55
2022/01/23 12:44:29;;;;;;;13.57;9.32;;;;;;;;;;5050829;28;20045;-58
2022/01/23 12:46:56;;;;;;;12.80;10.13;;;;;;;;;;5050249;28;20113;-54
2022/01/23 12:49:22;;;;;;;12.02;8.15;;;;;;;;;;5049118;28;20017;-56
2022/01/23 12:51:49;;;;;;;11.95;7.50;;;;;;;;;;5049161;28;20032;-58
2022/01/23 12:54:26;;;;;;;14.30;9.38;;;;;;;;;;5047073;28;20485;-56
2022/01/23 12:56:53;;;;;;;9.30;6.38;;;;;;;;;;5037407;28;20041;-57
2022/01/23 12:59:25;;;;;;;11.45;6.18;;;;;;;;;;5044104;28;20025;-56
2022/01/23 13:01:58;;;;;;;10.65;7.15;;;;;;;;;;5041160;28;20029;-59
2022/01/23 13:04:24;;;;;;;10.27;8.07;;;;;;;;;;5050222;28;20067;-56
2022/01/23 13:06:59;;;;;;;7.15;6.32;;;;;;;;;;5040237;28;20471;-53
2022/01/23 13:09:53;;;;;;;6.25;5.18;;;;;;;;;;5052687;28;20387;-57
2022/01/23 13:26:59;;;;;;;11.52;6.72;;;;;;;;;;5054029;28;20036;-58
2022/01/23 13:32:42;;;;;;;9.38;5.43;;;;;;;;;;5054453;28;20562;-57
2022/01/23 13:35:13;;;;;;;6.15;4.07;;;;;;;;;;5053070;28;20048;-55
2022/01/23 13:37:40;;;;;;;6.93;3.95;;;;;;;;;;5053537;28;20021;-57
2022/01/23 13:40:12;;;;;;;8.85;4.93;;;;;;;;;;5053605;28;20339;-57
2022/01/23 13:42:52;;;;;;;6.78;5.00;;;;;;;;;;5053706;28;20491;-52
2022/01/23 13:48:37;;;;;;;6.63;5.13;;;;;;;;;;5053097;28;20102;-55
2022/01/23 13:59:12;;;;;;;6.75;3.67;;;;;;;;;;5053035;28;20031;-57
2022/01/23 14:04:21;;;;;;;6.28;4.28;;;;;;;;;;5053483;28;20048;-57
2022/01/23 14:06:47;;;;;;;6.55;4.22;;;;;;;;;;5053580;28;20025;-55
2022/01/23 14:09:14;;;;;;;9.02;6.18;;;;;;;;;;5052319;28;20433;-55
2022/01/23 14:11:41;;;;;;;8.85;5.20;;;;;;;;;;5053375;28;20037;-57
2022/01/23 14:14:15;;;;;;;8.40;5.07;;;;;;;;;;5053099;28;20033;-57
2022/01/23 14:16:41;;;;;;;6.80;4.53;;;;;;;;;;5052832;28;20036;-56
2022/01/23 14:19:25;;;;;;;6.30;4.03;;;;;;;;;;5052736;28;20036;-57
2022/01/23 14:21:52;;;;;;;7.20;4.07;;;;;;;;;;5053433;28;20025;-57
2022/01/23 14:24:26;;;;;;;6.35;4.28;;;;;;;;;;5052692;28;20047;-57
2022/01/23 14:27:11;;;;;;;8.13;3.45;;;;;;;;;;5052860;28;20434;-56
2022/01/23 14:29:51;;;;;;;4.65;3.78;;;;;;;;;;5052054;28;20082;-55
2022/01/23 14:32:44;;;;;;;4.05;2.65;;;;;;;;;;5053073;28;20025;-53
2022/01/23 14:35:10;;;;;;;4.57;2.72;;;;;;;;;;5051883;28;20079;-57
2022/01/23 14:37:36;;;;;;;5.65;2.80;;;;;;;;;;5044394;28;20056;-57
2022/01/23 14:40:08;;;;;;;5.53;3.72;;;;;;;;;;5049646;28;20064;-57
2022/01/23 14:42:34;;;;;;;4.65;3.67;;;;;;;;;;5044036;28;20387;-56
2022/01/23 14:45:03;;;;;;;4.15;3.00;;;;;;;;;;5048469;28;20033;-55
2022/01/23 14:47:39;;;;;;;4.15;2.67;;;;;;;;;;5052228;28;20033;-55
2022/01/23 14:50:12;;;;;;;5.05;2.55;;;;;;;;;;5049705;28;20033;-56
2022/01/23 14:52:40;;;;;;;4.72;2.95;;;;;;;;;;5050753;28;20025;-56
2022/01/23 14:55:07;;;;;;;3.83;2.60;;;;;;;;;;5036618;28;20033;-53
2022/01/23 14:57:34;;;;;;;4.75;2.53;;;;;;;;;;5042650;28;20052;-55
2022/01/23 15:00:00;;;;;;;4.38;2.78;;;;;;;;;;5047747;28;20510;-54
2022/01/23 15:02:26;;;;;;;4.32;2.40;;;;;;;;;;5044949;28;20378;-57
2022/01/23 15:04:52;;;;;;;4.18;2.63;;;;;;;;;;5040748;28;20033;-56
2022/01/23 15:07:19;;;;;;;4.38;2.85;;;;;;;;;;5047776;28;20031;-57
2022/01/23 15:09:48;;;;;;;3.78;2.30;;;;;;;;;;5051077;28;20028;-54
2022/01/23 15:12:15;;;;;;;3.93;2.53;;;;;;;;;;5044758;28;20033;-57
2022/01/23 15:14:41;;;;;;;6.80;3.38;;;;;;;;;;5037784;28;20041;-57
2022/01/23 15:17:07;;;;;;;6.50;3.22;;;;;;;;;;5049175;28;20033;-55
2022/01/23 15:19:34;;;;;;;4.55;3.60;;;;;;;;;;5048475;28;20470;-56
2022/01/23 15:22:00;;;;;;;5.18;2.85;;;;;;;;;;5043727;28;20036;-54
2022/01/23 15:24:26;;;;;;;5.00;3.03;;;;;;;;;;5047898;28;20045;-56
2022/01/23 15:26:52;;;;;;;5.22;3.03;;;;;;;;;;5048467;28;20047;-58
2022/01/23 15:29:18;;;;;;;3.75;2.42;;;;;;;;;;5046087;28;20394;-56
2022/01/23 15:31:47;;;;;;;4.28;2.72;;;;;;;;;;5042694;28;20040;-55
2022/01/23 15:34:15;;;;;;;6.90;3.72;;;;;;;;;;5042511;28;20047;-56
2022/01/23 15:36:41;;;;;;;5.43;3.13;;;;;;;;;;5048645;28;20067;-56
2022/01/23 15:39:07;;;;;;;7.05;3.25;;;;;;;;;;5045475;28;20493;-56
2022/01/23 15:41:33;;;;;;;5.03;2.85;;;;;;;;;;5047361;28;20048;-57
2022/01/23 15:43:59;;;;;;;3.55;2.35;;;;;;;;;;5048626;28;20051;-56
2022/01/23 15:46:26;;;;;;;5.63;3.07;;;;;;;;;;5041359;28;20029;-57
2022/01/23 15:48:52;;;;;;;7.88;2.78;;;;;;;;;;5047917;28;20044;-56
2022/01/23 15:51:18;;;;;;;4.82;2.88;;;;;;;;;;5048676;28;20036;-56
2022/01/23 15:53:44;;;;;;;4.63;2.72;;;;;;;;;;5049124;28;20091;-57
2022/01/23 15:56:10;;;;;;;5.20;2.75;;;;;;;;;;5046374;28;20029;-55
2022/01/23 15:58:36;;;;;;;3.47;2.33;;;;;;;;;;5048267;28;20087;-56
2022/01/23 16:01:02;;;;;;;4.88;2.65;;;;;;;;;;5046944;28;20033;-57
2022/01/23 16:03:28;;;;;;;4.55;2.28;;;;;;;;;;5043604;28;20483;-56
2022/01/23 16:05:55;;;;;;;3.93;2.30;;;;;;;;;;5049238;28;20082;-56
2022/01/23 16:08:21;;;;;;;4.78;3.33;;;;;;;;;;5048471;28;20120;-56
2022/01/23 16:10:47;;;;;;;4.03;2.87;;;;;;;;;;5048500;28;20390;-56
2022/01/23 16:13:13;;;;;;;5.88;3.25;;;;;;;;;;5048491;28;20075;-50
2022/01/23 16:15:40;;;;;;;5.47;3.28;;;;;;;;;;5048854;28;20079;-55
2022/01/23 16:18:06;;;;;;;6.13;3.47;;;;;;;;;;5048616;28;20600;-56
2022/01/23 16:20:32;;;;;;;6.20;3.50;;;;;;;;;;5035823;28;20064;-55
2022/01/23 16:22:58;;;;;;;3.78;2.15;;;;;;;;;;5039917;28;20046;-57
2022/01/23 16:25:24;;;;;;;4.40;3.07;;;;;;;;;;5047392;28;20485;-56
2022/01/23 16:27:50;;;;;;;5.35;2.83;;;;;;;;;;5048038;28;20078;-56
2022/01/23 16:30:18;;;;;;;4.03;2.80;;;;;;;;;;5049069;28;20458;-57
2022/01/23 16:32:44;;;;;;;6.30;3.33;;;;;;;;;;5044403;28;20032;-55
2022/01/23 16:35:14;;;;;;;5.25;2.53;;;;;;;;;;5048166;28;20094;-54
2022/01/23 16:37:40;;;;;;;5.53;3.08;;;;;;;;;;5047752;28;20379;-57
2022/01/23 16:40:06;;;;;;;4.60;3.77;;;;;;;;;;5052317;28;20184;-57
2022/01/23 16:42:32;;;;;;;4.00;2.90;;;;;;;;;;5052459;28;20040;-56
2022/01/23 16:44:58;;;;;;;3.60;2.00;;;;;;;;;;5052846;28;20029;-56
2022/01/23 16:47:24;;;;;;;5.80;2.88;;;;;;;;;;5052717;28;20106;-56
2022/01/23 16:49:50;;;;;;;5.47;2.53;;;;;;;;;;5050286;28;20336;-55
2022/01/23 16:52:16;;;;;;;4.18;2.72;;;;;;;;;;5051104;28;20411;-53
2022/01/23 16:54:43;;;;;;;4.55;3.33;;;;;;;;;;5052528;28;20032;-56
2022/01/23 16:57:09;;;;;;;3.70;2.60;;;;;;;;;;5052172;28;20048;-57
2022/01/23 16:59:35;;;;;;;4.20;3.00;;;;;;;;;;5051951;28;20037;-56
2022/01/23 17:02:01;;;;;;;4.45;2.85;;;;;;;;;;5052572;28;20103;-57
2022/01/23 17:04:32;;;;;;;6.20;4.07;;;;;;;;;;5051947;28;20116;-56
2022/01/23 17:06:58;;;;;;;4.77;2.90;;;;;;;;;;5052506;28;20432;-55
2022/01/23 17:09:24;;;;;;;10.15;3.60;;;;;;;;;;5049274;28;20033;-57
2022/01/23 17:11:50;;;;;;;4.43;2.97;;;;;;;;;;5048700;28;20055;-57
2022/01/23 17:14:16;;;;;;;5.13;3.00;;;;;;;;;;5052878;28;20037;-56
2022/01/23 17:16:42;;;;;;;4.63;2.45;;;;;;;;;;5052054;28;20048;-57
2022/01/23 17:19:08;;;;;;;4.77;3.17;;;;;;;;;;5051068;28;20462;-57
2022/01/23 17:21:34;;;;;;;4.57;3.33;;;;;;;;;;5051342;28;20416;-55
2022/01/23 17:24:00;;;;;;;4.73;2.80;;;;;;;;;;5051624;28;20538;-52
2022/01/23 17:26:27;;;;;;;4.37;2.97;;;;;;;;;;5050878;28;20047;-56
2022/01/23 17:28:53;;;;;;;4.40;3.13;;;;;;;;;;5051744;28;20108;-55
2022/01/23 17:31:19;;;;;;;3.10;2.37;;;;;;;;;;5049946;28;20122;-56
2022/01/23 17:33:45;;;;;;;5.75;3.42;;;;;;;;;;5051857;28;20037;-55
2022/01/23 17:36:11;;;;;;;5.80;3.63;;;;;;;;;;5051534;28;20040;-54
2022/01/23 17:38:38;;;;;;;4.30;2.90;;;;;;;;;;5051078;28;20437;-57
2022/01/23 17:41:04;;;;;;;4.18;3.05;;;;;;;;;;5051896;28;20029;-57
2022/01/23 17:43:30;;;;;;;6.82;3.47;;;;;;;;;;5051903;28;20045;-55
2022/01/23 17:45:58;;;;;;;4.53;2.73;;;;;;;;;;5051815;28;20031;-56
2022/01/23 17:51:13;;;;;;;4.28;2.80;;;;;;;;;;5050804;28;20513;-54
2022/01/23 17:53:40;;;;;;;4.90;2.80;;;;;;;;;;5051093;28;20029;-55
2022/01/23 17:56:06;;;;;;;4.53;3.10;;;;;;;;;;5051357;28;20485;-57
2022/01/23 17:58:32;;;;;;;5.33;2.73;;;;;;;;;;5050897;28;20040;-55
2022/01/23 18:00:58;;;;;;;3.83;2.87;;;;;;;;;;5051052;28;20387;-56
2022/01/23 18:03:24;;;;;;;4.07;2.70;;;;;;;;;;5050974;28;20048;-56
2022/01/23 18:05:51;;;;;;;6.03;2.45;;;;;;;;;;5051454;28;20402;-55
2022/01/23 18:08:18;;;;;;;5.07;3.37;;;;;;;;;;5050806;28;20036;-54
2022/01/23 18:10:45;;;;;;;3.90;1.85;;;;;;;;;;5051330;28;20489;-54